• Join FlightAware (Why Join?)
  • Login
  • US Flag 
06:52PM EDT


 

Airport Tracker/Info


-or-


 

Live Flight TrackerFlight Track Log ✈ KAL61 ✈ 19-Apr-2013 ✈ KLAX - SBGR / GRU

Flight Track Log - Related Links

Times and Time Zones

All times are in EDT time to prevent confusion due to time zone crossing. See the KAL61 flight status page for this flight to view local times or setup timezone preferences in your user account.

Time Position Orientation Groundspeed Altitude Reporting Facility
EDT Latitude Longitude Course Direction KTS MPH feet Rate Location/Type
10:29PM 33.9333 -118.4667 229° Southwest 192 221 2,300  Level Southern California TRACON
10:30PM 33.8894 -118.5267 229° Southwest 238 274 3,500 1,500 Climbing Los Angeles Center
10:31PM 33.8239 -118.5339 185° South 272 313 5,600 1,980 Climbing Los Angeles Center
10:32PM 33.7225 -118.5203 174° South 314 361 7,700 1,740 Climbing Los Angeles Center
10:33PM 33.6647 -118.4753 147° Southeast 337 388 9,200 1,860 Climbing Los Angeles Center
10:34PM 33.6325 -118.3464 107° East 344 396 11,600 2,340 Climbing Los Angeles Center
10:35PM 33.6061 -118.2322 105° East 358 412 14,100 2,220 Climbing Los Angeles Center
10:36PM 33.5694 -118.0872 107° East 381 438 16,300 1,800 Climbing Los Angeles Center
10:37PM 33.5375 -117.9558 106° East 409 471 17,900 1,620 Climbing Los Angeles Center
10:38PM 33.4961 -117.8197 110° East 433 498 19,700 1,740 Climbing Los Angeles Center
10:39PM 33.4550 -117.6786 109° East 449 517 21,500 1,440 Climbing Los Angeles Center
10:40PM 33.4144 -117.5322 108° East 464 534 23,000 1,500 Climbing Los Angeles Center
10:41PM 33.3597 -117.3508 110° East 481 554 24,900 1,740 Climbing Los Angeles Center
10:42PM 33.2903 -117.1711 115° Southeast 496 571 26,700 1,440 Climbing Los Angeles Center
10:43PM 33.2336 -117.0353 116° Southeast 504 580 27,900 1,020 Climbing Los Angeles Center
10:45PM 33.1714 -116.8806 116° Southeast 515 593 29,100 1,260 Climbing Los Angeles Center
10:46PM 33.0800 -116.6625 117° Southeast 524 603 30,800 900 Climbing Los Angeles Center
10:47PM 33.0214 -116.5203 116° Southeast 535 616 31,000 60 Climbing Los Angeles Center
10:48PM 32.9581 -116.3642 116° Southeast 531 611 31,000  Level Los Angeles Center
10:49PM 32.8761 -116.1761 117° Southeast 537 618 31,000  Level Los Angeles Center
10:50PM 32.8092 -116.0194 117° Southeast 532 612 31,000  Level Los Angeles Center
10:51PM 32.7428 -115.8642 117° Southeast 529 609 31,000  Level Los Angeles Center
10:52PM 32.6764 -115.7092 117° Southeast 527 606 31,000 -60 Level Los Angeles Center
10:53PM 32.6056 -115.5572 119° Southeast 525 604 30,900  Descending Los Angeles Center
10:54PM 32.5244 -115.4106 123° Southeast 528 608 31,000 60 Climbing Los Angeles Center
10:56PM 32.3730 -115.2075 124° Southeast  Level FlightAware Approximate
11:03PM 31.8336 -114.2828 124° Southeast  Level FlightAware Approximate
11:04PM 31.7560 -114.1515 125° Southeast  Level FlightAware Approximate
11:05PM 31.6782 -114.0205 125° Southeast  Level FlightAware Approximate
11:06PM 31.6003 -113.8898 125° Southeast  Level FlightAware Approximate
11:07PM 31.5223 -113.7592 125° Southeast  Level FlightAware Approximate
11:08PM 31.4442 -113.6289 125° Southeast  Level FlightAware Approximate
11:09PM 31.3660 -113.4986 120° Southeast  Level FlightAware Approximate
11:10PM 31.2971 -113.3615 120° Southeast  Level FlightAware Approximate
11:11PM 31.2281 -113.2246 120° Southeast  Level FlightAware Approximate
11:12PM 31.1589 -113.0879 121° Southeast  Level FlightAware Approximate
11:13PM 31.0896 -112.9514 121° Southeast  Level FlightAware Approximate
11:14PM 31.0201 -112.8151 121° Southeast  Level FlightAware Approximate
11:15PM 30.9505 -112.6790 121° Southeast  Level FlightAware Approximate
11:16PM 30.8807 -112.5431 121° Southeast  Level FlightAware Approximate
11:17PM 30.8094 -112.4084 122° Southeast  Level FlightAware Approximate
11:18PM 30.7368 -112.2747 122° Southeast  Level FlightAware Approximate
11:19PM 30.6640 -112.1413 122° Southeast  Level FlightAware Approximate
11:20PM 30.5911 -112.0080 122° Southeast  Level FlightAware Approximate
11:21PM 30.5181 -111.8749 122° Southeast  Level FlightAware Approximate
11:22PM 30.4449 -111.7421 123° Southeast  Level FlightAware Approximate
11:23PM 30.3716 -111.6094 123° Southeast  Level FlightAware Approximate
11:24PM 30.2982 -111.4770 123° Southeast  Level FlightAware Approximate
11:25PM 30.2246 -111.3447 123° Southeast  Level FlightAware Approximate
11:26PM 30.1510 -111.2126 123° Southeast  Level FlightAware Approximate
11:27PM 30.0771 -111.0807 123° Southeast  Level FlightAware Approximate
11:28PM 30.0032 -110.9491 123° Southeast  Level FlightAware Approximate
11:29PM 29.9291 -110.8176 123° Southeast  Level FlightAware Approximate
11:30PM 29.8549 -110.6863 123° Southeast  Level FlightAware Approximate
11:31PM 29.7805 -110.5552 123° Southeast  Level FlightAware Approximate
11:32PM 29.7060 -110.4243 123° Southeast  Level FlightAware Approximate
11:33PM 29.6314 -110.2936 123° Southeast  Level FlightAware Approximate
11:34PM 29.5567 -110.1631 123° Southeast  Level FlightAware Approximate
11:35PM 29.4818 -110.0328 123° Southeast  Level FlightAware Approximate
11:36PM 29.4068 -109.9027 123° Southeast  Level FlightAware Approximate
11:37PM 29.3317 -109.7728 124° Southeast  Level FlightAware Approximate
11:38PM 29.2565 -109.6431 124° Southeast  Level FlightAware Approximate
11:39PM 29.1811 -109.5135 124° Southeast  Level FlightAware Approximate
11:40PM 29.1056 -109.3842 124° Southeast  Level FlightAware Approximate
11:41PM 29.0300 -109.2550 124° Southeast  Level FlightAware Approximate
11:42PM 28.9543 -109.1260 124° Southeast  Level FlightAware Approximate
11:43PM 28.8784 -108.9972 124° Southeast  Level FlightAware Approximate
11:44PM 28.8024 -108.8686 124° Southeast  Level FlightAware Approximate
11:45PM 28.7263 -108.7402 124° Southeast  Level FlightAware Approximate
11:46PM 28.6501 -108.6120 124° Southeast  Level FlightAware Approximate
11:47PM 28.5740 -108.4838 123° Southeast  Level FlightAware Approximate
11:48PM 28.4991 -108.3548 123° Southeast  Level FlightAware Approximate
11:49PM 28.4240 -108.2259 123° Southeast  Level FlightAware Approximate
11:50PM 28.3489 -108.0972 124° Southeast  Level FlightAware Approximate
11:51PM 28.2736 -107.9687 124° Southeast  Level FlightAware Approximate
11:52PM 28.1982 -107.8404 124° Southeast  Level FlightAware Approximate
11:53PM 28.1227 -107.7123 124° Southeast  Level FlightAware Approximate
11:54PM 28.0471 -107.5843 124° Southeast  Level FlightAware Approximate
11:55PM 27.9714 -107.4566 124° Southeast  Level FlightAware Approximate
11:56PM 27.8955 -107.3290 124° Southeast  Level FlightAware Approximate
11:57PM 27.8195 -107.2016 124° Southeast  Level FlightAware Approximate
11:58PM 27.7435 -107.0743 124° Southeast  Level FlightAware Approximate
11:59PM 27.6672 -106.9473 124° Southeast  Level FlightAware Approximate
12:00AM 27.5909 -106.8204 124° Southeast  Level FlightAware Approximate
12:01AM 27.5145 -106.6937 124° Southeast  Level FlightAware Approximate
12:02AM 27.4379 -106.5671 124° Southeast  Level FlightAware Approximate
12:03AM 27.3612 -106.4408 124° Southeast  Level FlightAware Approximate
12:04AM 27.2845 -106.3146 124° Southeast  Level FlightAware Approximate
12:05AM 27.2076 -106.1886 124° Southeast  Level FlightAware Approximate
12:06AM 27.1306 -106.0628 124° Southeast  Level FlightAware Approximate
12:07AM 27.0534 -105.9371 125° Southeast  Level FlightAware Approximate
12:08AM 26.9762 -105.8116 125° Southeast  Level FlightAware Approximate
12:09AM 26.8989 -105.6863 125° Southeast  Level FlightAware Approximate
12:10AM 26.8214 -105.5612 125° Southeast  Level FlightAware Approximate
12:11AM 26.7439 -105.4362 125° Southeast  Level FlightAware Approximate
12:12AM 26.6662 -105.3114 125° Southeast  Level FlightAware Approximate
12:13AM 26.5884 -105.1868 125° Southeast  Level FlightAware Approximate
12:14AM 26.5105 -105.0623 125° Southeast  Level FlightAware Approximate
12:15AM 26.4325 -104.9380 125° Southeast  Level FlightAware Approximate
12:16AM 26.3544 -104.8139 125° Southeast  Level FlightAware Approximate
12:17AM 26.2762 -104.6899 125° Southeast  Level FlightAware Approximate
12:18AM 26.1979 -104.5661 125° Southeast  Level FlightAware Approximate
12:19AM 26.1194 -104.4425 125° Southeast  Level FlightAware Approximate
12:20AM 26.0408 -104.3192 126° Southeast  Level FlightAware Approximate
12:21AM 25.9612 -104.1966 126° Southeast  Level FlightAware Approximate
12:22AM 25.8814 -104.0743 126° Southeast  Level FlightAware Approximate
12:23AM 25.8016 -103.9521 126° Southeast  Level FlightAware Approximate
12:24AM 25.7217 -103.8301 126° Southeast  Level FlightAware Approximate
12:25AM 25.6416 -103.7083 126° Southeast  Level FlightAware Approximate
12:26AM 25.5615 -103.5866 126° Southeast  Level FlightAware Approximate
12:27AM 25.4812 -103.4651 126° Southeast  Level FlightAware Approximate
12:28AM 25.4009 -103.3438 126° Southeast  Level FlightAware Approximate
12:29AM 25.3205 -103.2226 126° Southeast  Level FlightAware Approximate
12:30AM 25.2399 -103.1016 126° Southeast  Level FlightAware Approximate
12:31AM 25.1605 -102.9797 126° Southeast  Level FlightAware Approximate
12:32AM 25.0815 -102.8577 126° Southeast  Level FlightAware Approximate
12:33AM 25.0023 -102.7357 126° Southeast  Level FlightAware Approximate
12:34AM 24.9231 -102.6140 126° Southeast  Level FlightAware Approximate
12:35AM 24.8438 -102.4924 126° Southeast  Level FlightAware Approximate
12:36AM 24.7644 -102.3709 126° Southeast  Level FlightAware Approximate
12:37AM 24.6848 -102.2496 126° Southeast  Level FlightAware Approximate
12:38AM 24.6052 -102.1285 126° Southeast  Level FlightAware Approximate
12:39AM 24.5255 -102.0075 126° Southeast  Level FlightAware Approximate
12:40AM 24.4457 -101.8867 126° Southeast  Level FlightAware Approximate
12:41AM 24.3658 -101.7660 126° Southeast  Level FlightAware Approximate
12:42AM 24.2857 -101.6455 126° Southeast  Level FlightAware Approximate
12:43AM 24.2056 -101.5251 126° Southeast  Level FlightAware Approximate
12:44AM 24.1197 -101.4101 132° Southeast  Level FlightAware Approximate
12:45AM 24.0282 -101.3000 132° Southeast  Level FlightAware Approximate
12:46AM 23.9366 -101.1902 132° Southeast  Level FlightAware Approximate
12:47AM 23.8449 -101.0805 132° Southeast  Level FlightAware Approximate
12:48AM 23.7532 -100.9709 132° Southeast  Level FlightAware Approximate
12:49AM 23.6614 -100.8615 132° Southeast  Level FlightAware Approximate
12:50AM 23.5695 -100.7523 133° Southeast  Level FlightAware Approximate
12:51AM 23.4771 -100.6437 137° Southeast  Level FlightAware Approximate
12:52AM 23.3873 -100.5326 131° Southeast  Level FlightAware Approximate
12:53AM 23.2987 -100.4204 131° Southeast  Level FlightAware Approximate
12:54AM 23.2099 -100.3085 132° Southeast  Level FlightAware Approximate
12:55AM 23.1191 -100.1985 132° Southeast  Level FlightAware Approximate
12:56AM 23.0283 -100.0887 132° Southeast  Level FlightAware Approximate
12:57AM 22.9373 -99.9791 132° Southeast  Level FlightAware Approximate
12:58AM 22.8463 -99.8696 132° Southeast  Level FlightAware Approximate
12:59AM 22.7552 -99.7602 132° Southeast  Level FlightAware Approximate
01:00AM 22.6641 -99.6510 132° Southeast  Level FlightAware Approximate
01:01AM 22.5728 -99.5419 132° Southeast  Level FlightAware Approximate
01:02AM 22.4815 -99.4330 132° Southeast  Level FlightAware Approximate
01:03AM 22.3901 -99.3242 132° Southeast  Level FlightAware Approximate
01:04AM 22.2987 -99.2155 132° Southeast  Level FlightAware Approximate
01:05AM 22.2071 -99.1070 132° Southeast  Level FlightAware Approximate
01:06AM 22.1155 -98.9986 132° Southeast  Level FlightAware Approximate
01:07AM 22.0241 -98.8902 132° Southeast  Level FlightAware Approximate
01:08AM 21.9327 -98.7818 132° Southeast  Level FlightAware Approximate
01:09AM 21.8412 -98.6736 132° Southeast  Level FlightAware Approximate
01:10AM 21.7495 -98.5655 132° Southeast  Level FlightAware Approximate
01:11AM 21.6579 -98.4575 132° Southeast  Level FlightAware Approximate
01:12AM 21.5661 -98.3497 132° Southeast  Level FlightAware Approximate
01:13AM 21.4743 -98.2421 132° Southeast  Level FlightAware Approximate
01:14AM 21.3825 -98.1345 133° Southeast  Level FlightAware Approximate
01:15AM 21.2905 -98.0271 133° Southeast  Level FlightAware Approximate
01:16AM 21.1985 -97.9199 133° Southeast  Level FlightAware Approximate
01:17AM 21.1064 -97.8127 133° Southeast  Level FlightAware Approximate
01:18AM 21.0142 -97.7057 133° Southeast  Level FlightAware Approximate
01:19AM 20.9220 -97.5988 133° Southeast  Level FlightAware Approximate
01:20AM 20.8298 -97.4921 133° Southeast  Level FlightAware Approximate
01:21AM 20.7374 -97.3855 133° Southeast  Level FlightAware Approximate
01:22AM 20.6450 -97.2790 133° Southeast  Level FlightAware Approximate
01:23AM 20.5525 -97.1727 133° Southeast  Level FlightAware Approximate
01:24AM 20.4600 -97.0665 133° Southeast  Level FlightAware Approximate
01:25AM 20.3673 -96.9604 133° Southeast  Level FlightAware Approximate
01:26AM 20.2750 -96.8541 132° Southeast  Level FlightAware Approximate
01:27AM 20.1847 -96.7459 128° Southeast  Level FlightAware Approximate
01:28AM 20.1009 -96.6320 128° Southeast  Level FlightAware Approximate
01:29AM 20.0171 -96.5182 128° Southeast  Level FlightAware Approximate
01:30AM 19.9331 -96.4045 128° Southeast  Level FlightAware Approximate
01:31AM 19.8491 -96.2910 128° Southeast  Level FlightAware Approximate
01:32AM 19.7650 -96.1775 128° Southeast  Level FlightAware Approximate
01:33AM 19.6808 -96.0642 128° Southeast  Level FlightAware Approximate
01:34AM 19.5966 -95.9510 128° Southeast  Level FlightAware Approximate
01:35AM 19.5123 -95.8380 128° Southeast  Level FlightAware Approximate
01:36AM 19.4279 -95.7250 128° Southeast  Level FlightAware Approximate
01:37AM 19.3434 -95.6122 128° Southeast  Level FlightAware Approximate
01:38AM 19.2589 -95.4994 128° Southeast  Level FlightAware Approximate
01:39AM 19.1743 -95.3868 128° Southeast  Level FlightAware Approximate
01:40AM 19.0897 -95.2743 129° Southeast  Level FlightAware Approximate
01:41AM 19.0049 -95.1619 129° Southeast  Level FlightAware Approximate
01:42AM 18.9203 -95.0496 128° Southeast  Level FlightAware Approximate
01:43AM 18.8356 -94.9372 129° Southeast  Level FlightAware Approximate
01:44AM 18.7509 -94.8250 129° Southeast  Level FlightAware Approximate
01:45AM 18.6661 -94.7129 129° Southeast  Level FlightAware Approximate
01:46AM 18.5812 -94.6010 129° Southeast  Level FlightAware Approximate
01:47AM 18.4963 -94.4891 129° Southeast  Level FlightAware Approximate
01:48AM 18.4113 -94.3773 129° Southeast  Level FlightAware Approximate
01:49AM 18.3262 -94.2657 129° Southeast  Level FlightAware Approximate
01:50AM 18.2411 -94.1541 129° Southeast  Level FlightAware Approximate
01:51AM 18.1559 -94.0427 129° Southeast  Level FlightAware Approximate
01:52AM 18.0707 -93.9314 129° Southeast  Level FlightAware Approximate
01:53AM 17.9853 -93.8202 129° Southeast  Level FlightAware Approximate
01:54AM 17.9000 -93.7091 129° Southeast  Level FlightAware Approximate
01:55AM 17.8145 -93.5981 129° Southeast  Level FlightAware Approximate
01:56AM 17.7290 -93.4872 129° Southeast  Level FlightAware Approximate
01:57AM 17.6434 -93.3764 129° Southeast  Level FlightAware Approximate
01:58AM 17.5578 -93.2657 129° Southeast  Level FlightAware Approximate
01:59AM 17.4721 -93.1552 129° Southeast  Level FlightAware Approximate
02:00AM 17.3864 -93.0447 129° Southeast  Level FlightAware Approximate
02:01AM 17.3006 -92.9343 129° Southeast  Level FlightAware Approximate
02:02AM 17.2147 -92.8241 129° Southeast  Level FlightAware Approximate
02:03AM 17.1287 -92.7139 129° Southeast  Level FlightAware Approximate
02:04AM 17.0428 -92.6038 129° Southeast  Level FlightAware Approximate
02:05AM 16.9567 -92.4939 129° Southeast  Level FlightAware Approximate
02:06AM 16.8706 -92.3840 129° Southeast  Level FlightAware Approximate
02:07AM 16.7844 -92.2743 129° Southeast  Level FlightAware Approximate
02:08AM 16.6982 -92.1646 129° Southeast  Level FlightAware Approximate
02:09AM 16.6119 -92.0550 129° Southeast  Level FlightAware Approximate
02:10AM 16.5256 -91.9456 129° Southeast  Level FlightAware Approximate
02:11AM 16.4392 -91.8362 129° Southeast  Level FlightAware Approximate
02:12AM 16.3527 -91.7270 130° Southeast  Level FlightAware Approximate
02:13AM 16.2662 -91.6178 130° Southeast  Level FlightAware Approximate
02:14AM 16.1796 -91.5087 130° Southeast  Level FlightAware Approximate
02:15AM 16.0930 -91.3997 130° Southeast  Level FlightAware Approximate
02:16AM 16.0061 -91.2910 130° Southeast  Level FlightAware Approximate
02:17AM 15.9191 -91.1825 130° Southeast  Level FlightAware Approximate
02:18AM 15.8321 -91.0740 130° Southeast  Level FlightAware Approximate
02:19AM 15.7449 -90.9657 130° Southeast  Level FlightAware Approximate
02:20AM 15.6578 -90.8574 130° Southeast  Level FlightAware Approximate
02:21AM 15.5705 -90.7492 130° Southeast  Level FlightAware Approximate
02:22AM 15.4833 -90.6411 130° Southeast  Level FlightAware Approximate
02:23AM 15.3960 -90.5331 130° Southeast  Level FlightAware Approximate
02:24AM 15.3086 -90.4252 130° Southeast  Level FlightAware Approximate
02:25AM 15.2211 -90.3174 130° Southeast  Level FlightAware Approximate
02:26AM 15.1337 -90.2096 130° Southeast  Level FlightAware Approximate
02:27AM 15.0461 -90.1020 130° Southeast  Level FlightAware Approximate
02:28AM 14.9586 -89.9945 130° Southeast  Level FlightAware Approximate
02:29AM 14.8709 -89.8870 130° Southeast  Level FlightAware Approximate
02:30AM 14.7832 -89.7796 130° Southeast  Level FlightAware Approximate
02:31AM 14.6955 -89.6723 130° Southeast  Level FlightAware Approximate
02:32AM 14.6077 -89.5651 130° Southeast  Level FlightAware Approximate
02:33AM 14.5199 -89.4580 130° Southeast  Level FlightAware Approximate
02:34AM 14.4320 -89.3510 130° Southeast  Level FlightAware Approximate
02:35AM 14.3441 -89.2440 130° Southeast  Level FlightAware Approximate
02:36AM 14.2558 -89.1374 132° Southeast  Level FlightAware Approximate
02:37AM 14.1657 -89.0326 132° Southeast  Level FlightAware Approximate
02:38AM 14.0754 -88.9278 132° Southeast  Level FlightAware Approximate
02:39AM 13.9852 -88.8231 132° Southeast  Level FlightAware Approximate
02:40AM 13.8948 -88.7186 132° Southeast  Level FlightAware Approximate
02:41AM 13.8045 -88.6140 132° Southeast  Level FlightAware Approximate
02:42AM 13.7142 -88.5095 132° Southeast  Level FlightAware Approximate
02:43AM 13.6239 -88.4050 132° Southeast  Level FlightAware Approximate
02:44AM 13.5335 -88.3006 132° Southeast  Level FlightAware Approximate
02:45AM 13.4431 -88.1964 132° Southeast  Level FlightAware Approximate
02:46AM 13.3526 -88.0921 132° Southeast  Level FlightAware Approximate
02:47AM 13.2621 -87.9880 132° Southeast  Level FlightAware Approximate
02:48AM 13.1715 -87.8839 132° Southeast  Level FlightAware Approximate
02:49AM 13.0809 -87.7800 132° Southeast  Level FlightAware Approximate
02:50AM 12.9903 -87.6760 132° Southeast  Level FlightAware Approximate
02:51AM 12.8996 -87.5722 132° Southeast  Level FlightAware Approximate
02:52AM 12.8089 -87.4685 132° Southeast  Level FlightAware Approximate
02:53AM 12.7181 -87.3648 132° Southeast  Level FlightAware Approximate
02:54AM 12.6273 -87.2612 132° Southeast  Level FlightAware Approximate
02:55AM 12.5365 -87.1577 132° Southeast  Level FlightAware Approximate
02:56AM 12.4456 -87.0542 132° Southeast  Level FlightAware Approximate
02:57AM 12.3547 -86.9508 132° Southeast  Level FlightAware Approximate
02:58AM 12.2637 -86.8475 132° Southeast  Level FlightAware Approximate
02:59AM 12.1727 -86.7442 132° Southeast  Level FlightAware Approximate
03:00AM 12.0817 -86.6411 132° Southeast  Level FlightAware Approximate
03:01AM 11.9906 -86.5380 132° Southeast  Level FlightAware Approximate
03:02AM 11.8995 -86.4350 132° Southeast  Level FlightAware Approximate
03:03AM 11.8082 -86.3321 132° Southeast  Level FlightAware Approximate
03:04AM 11.7169 -86.2293 132° Southeast  Level FlightAware Approximate
03:05AM 11.6256 -86.1266 132° Southeast  Level FlightAware Approximate
03:06AM 11.5342 -86.0240 132° Southeast  Level FlightAware Approximate
03:07AM 11.4427 -85.9214 132° Southeast  Level FlightAware Approximate
03:08AM 11.3513 -85.8189 132° Southeast  Level FlightAware Approximate
03:09AM 11.2598 -85.7165 132° Southeast  Level FlightAware Approximate
03:10AM 11.1682 -85.6141 132° Southeast  Level FlightAware Approximate
03:11AM 11.0767 -85.5118 132° Southeast  Level FlightAware Approximate
03:12AM 10.9851 -85.4095 132° Southeast  Level FlightAware Approximate
03:13AM 10.8934 -85.3074 132° Southeast  Level FlightAware Approximate
03:14AM 10.8017 -85.2052 132° Southeast  Level FlightAware Approximate
03:15AM 10.7100 -85.1032 132° Southeast  Level FlightAware Approximate
03:16AM 10.6183 -85.0012 132° Southeast  Level FlightAware Approximate
03:17AM 10.5265 -84.8993 132° Southeast  Level FlightAware Approximate
03:18AM 10.4347 -84.7974 132° Southeast  Level FlightAware Approximate
03:19AM 10.3429 -84.6956 133° Southeast  Level FlightAware Approximate
03:20AM 10.2510 -84.5938 133° Southeast  Level FlightAware Approximate
03:21AM 10.1591 -84.4921 133° Southeast  Level FlightAware Approximate
03:22AM 10.0672 -84.3905 133° Southeast  Level FlightAware Approximate
03:23AM 9.9752 -84.2889 133° Southeast  Level FlightAware Approximate
03:24AM 9.8832 -84.1874 133° Southeast  Level FlightAware Approximate
03:25AM 9.7912 -84.0860 133° Southeast  Level FlightAware Approximate
03:26AM 9.6992 -83.9846 133° Southeast  Level FlightAware Approximate
03:27AM 9.6071 -83.8832 133° Southeast  Level FlightAware Approximate
03:28AM 9.5150 -83.7819 133° Southeast  Level FlightAware Approximate
03:29AM 9.4228 -83.6807 133° Southeast  Level FlightAware Approximate
03:30AM 9.3307 -83.5795 133° Southeast  Level FlightAware Approximate
03:31AM 9.2385 -83.4783 133° Southeast  Level FlightAware Approximate
03:32AM 9.1462 -83.3773 133° Southeast  Level FlightAware Approximate
03:33AM 9.0540 -83.2762 133° Southeast  Level FlightAware Approximate
03:34AM 8.9617 -83.1753 133° Southeast  Level FlightAware Approximate
03:35AM 8.8694 -83.0743 133° Southeast  Level FlightAware Approximate
03:36AM 8.7770 -82.9735 133° Southeast  Level FlightAware Approximate
03:37AM 8.6847 -82.8727 133° Southeast  Level FlightAware Approximate
03:38AM 8.5923 -82.7719 133° Southeast  Level FlightAware Approximate
03:39AM 8.4999 -82.6711 133° Southeast  Level FlightAware Approximate
03:40AM 8.4074 -82.5704 133° Southeast  Level FlightAware Approximate
03:41AM 8.3150 -82.4697 133° Southeast  Level FlightAware Approximate
03:42AM 8.2225 -82.3691 133° Southeast  Level FlightAware Approximate
03:43AM 8.1300 -82.2686 133° Southeast  Level FlightAware Approximate
03:44AM 8.0375 -82.1681 133° Southeast  Level FlightAware Approximate
03:45AM 7.9450 -82.0676 133° Southeast  Level FlightAware Approximate
03:46AM 7.8524 -81.9672 133° Southeast  Level FlightAware Approximate
03:47AM 7.7598 -81.8668 133° Southeast  Level FlightAware Approximate
03:48AM 7.6672 -81.7665 133° Southeast  Level FlightAware Approximate
03:49AM 7.5745 -81.6662 133° Southeast  Level FlightAware Approximate
03:50AM 7.4819 -81.5660 133° Southeast  Level FlightAware Approximate
03:51AM 7.3892 -81.4658 133° Southeast  Level FlightAware Approximate
03:52AM 7.2965 -81.3656 133° Southeast  Level FlightAware Approximate
03:53AM 7.2038 -81.2655 133° Southeast  Level FlightAware Approximate
03:54AM 7.1110 -81.1654 133° Southeast  Level FlightAware Approximate
03:55AM 7.0182 -81.0654 133° Southeast  Level FlightAware Approximate
03:56AM 6.9254 -80.9654 133° Southeast  Level FlightAware Approximate
03:57AM 6.8326 -80.8654 133° Southeast  Level FlightAware Approximate
03:58AM 6.7398 -80.7655 133° Southeast  Level FlightAware Approximate
03:59AM 6.6469 -80.6656 133° Southeast  Level FlightAware Approximate
04:00AM 6.5540 -80.5658 133° Southeast  Level FlightAware Approximate
04:01AM 6.4612 -80.4660 133° Southeast  Level FlightAware Approximate
04:02AM 6.3682 -80.3662 133° Southeast  Level FlightAware Approximate
04:03AM 6.2753 -80.2665 133° Southeast  Level FlightAware Approximate
04:04AM 6.1824 -80.1668 133° Southeast  Level FlightAware Approximate
04:05AM 6.0894 -80.0671 133° Southeast  Level FlightAware Approximate
04:06AM 5.9964 -79.9675 133° Southeast  Level FlightAware Approximate
04:07AM 5.9034 -79.8679 133° Southeast  Level FlightAware Approximate
04:08AM 5.8104 -79.7683 133° Southeast  Level FlightAware Approximate
04:09AM 5.7173 -79.6688 133° Southeast  Level FlightAware Approximate
04:10AM 5.6243 -79.5693 133° Southeast  Level FlightAware Approximate
04:11AM 5.5312 -79.4698 133° Southeast  Level FlightAware Approximate
04:12AM 5.4381 -79.3704 133° Southeast  Level FlightAware Approximate
04:13AM 5.3450 -79.2710 133° Southeast  Level FlightAware Approximate
04:14AM 5.2519 -79.1717 133° Southeast  Level FlightAware Approximate
04:15AM 5.1587 -79.0723 133° Southeast  Level FlightAware Approximate
04:16AM 5.0655 -78.9730 133° Southeast  Level FlightAware Approximate
04:17AM 4.9724 -78.8737 133° Southeast  Level FlightAware Approximate
04:18AM 4.8792 -78.7745 133° Southeast  Level FlightAware Approximate
04:19AM 4.7860 -78.6752 133° Southeast  Level FlightAware Approximate
04:20AM 4.6928 -78.5760 133° Southeast  Level FlightAware Approximate
04:21AM 4.5995 -78.4769 133° Southeast  Level FlightAware Approximate
04:22AM 4.5063 -78.3777 133° Southeast  Level FlightAware Approximate
04:23AM 4.4130 -78.2786 133° Southeast  Level FlightAware Approximate
04:24AM 4.3198 -78.1795 133° Southeast  Level FlightAware Approximate
04:25AM 4.2265 -78.0804 133° Southeast  Level FlightAware Approximate
04:26AM 4.1332 -77.9814 133° Southeast  Level FlightAware Approximate
04:27AM 4.0399 -77.8823 133° Southeast  Level FlightAware Approximate
04:28AM 3.9466 -77.7833 133° Southeast  Level FlightAware Approximate
04:29AM 3.8532 -77.6844 133° Southeast  Level FlightAware Approximate
04:30AM 3.7599 -77.5854 133° Southeast  Level FlightAware Approximate
04:31AM 3.6665 -77.4865 133° Southeast  Level FlightAware Approximate
04:32AM 3.5732 -77.3876 133° Southeast  Level FlightAware Approximate
04:33AM 3.4798 -77.2887 133° Southeast  Level FlightAware Approximate
04:34AM 3.3864 -77.1898 133° Southeast  Level FlightAware Approximate
04:35AM 3.2930 -77.0909 133° Southeast  Level FlightAware Approximate
04:36AM 3.1996 -76.9921 133° Southeast  Level FlightAware Approximate
04:37AM 3.1062 -76.8932 133° Southeast  Level FlightAware Approximate
04:38AM 3.0127 -76.7944 133° Southeast  Level FlightAware Approximate
04:39AM 2.9193 -76.6957 133° Southeast  Level FlightAware Approximate
04:40AM 2.8259 -76.5969 133° Southeast  Level FlightAware Approximate
04:41AM 2.7324 -76.4981 133° Southeast  Level FlightAware Approximate
04:42AM 2.6390 -76.3994 133° Southeast  Level FlightAware Approximate
04:43AM 2.5455 -76.3007 133° Southeast  Level FlightAware Approximate
04:44AM 2.4520 -76.2020 133° Southeast  Level FlightAware Approximate
04:45AM 2.3586 -76.1033 133° Southeast  Level FlightAware Approximate
04:46AM 2.2651 -76.0046 133° Southeast  Level FlightAware Approximate
04:47AM 2.1716 -75.9059 133° Southeast  Level FlightAware Approximate
04:48AM 2.0781 -75.8073 133° Southeast  Level FlightAware Approximate
04:49AM 1.9846 -75.7086 133° Southeast  Level FlightAware Approximate
04:50AM 1.8910 -75.6100 133° Southeast  Level FlightAware Approximate
04:51AM 1.7975 -75.5114 133° Southeast  Level FlightAware Approximate
04:52AM 1.7040 -75.4128 133° Southeast  Level FlightAware Approximate
04:53AM 1.6105 -75.3141 133° Southeast  Level FlightAware Approximate
04:54AM 1.5170 -75.2156 133° Southeast  Level FlightAware Approximate
04:55AM 1.4234 -75.1170 134° Southeast  Level FlightAware Approximate
04:56AM 1.3299 -75.0184 134° Southeast  Level FlightAware Approximate
04:57AM 1.2363 -74.9198 134° Southeast  Level FlightAware Approximate
04:58AM 1.1428 -74.8213 134° Southeast  Level FlightAware Approximate
04:59AM 1.0493 -74.7227 134° Southeast  Level FlightAware Approximate
05:00AM 0.9557 -74.6241 134° Southeast  Level FlightAware Approximate
05:01AM 0.8622 -74.5256 134° Southeast  Level FlightAware Approximate
05:02AM 0.7686 -74.4270 134° Southeast  Level FlightAware Approximate
05:03AM 0.6751 -74.3284 134° Southeast  Level FlightAware Approximate
05:04AM 0.5815 -74.2299 134° Southeast  Level FlightAware Approximate
05:05AM 0.4880 -74.1313 134° Southeast  Level FlightAware Approximate
05:06AM 0.3944 -74.0328 134° Southeast  Level FlightAware Approximate
05:07AM 0.3009 -73.9343 134° Southeast  Level FlightAware Approximate
05:08AM 0.2073 -73.8357 134° Southeast  Level FlightAware Approximate
05:09AM 0.1138 -73.7372 134° Southeast  Level FlightAware Approximate
05:10AM 0.0202 -73.6386 134° Southeast  Level FlightAware Approximate
05:11AM -0.0733 -73.5401 134° Southeast  Level FlightAware Approximate
05:12AM -0.1669 -73.4416 134° Southeast  Level FlightAware Approximate
05:13AM -0.2605 -73.3430 134° Southeast  Level FlightAware Approximate
05:14AM -0.3540 -73.2445 134° Southeast  Level FlightAware Approximate
05:15AM -0.4476 -73.1459 134° Southeast  Level FlightAware Approximate
05:16AM -0.5411 -73.0474 134° Southeast  Level FlightAware Approximate
05:17AM -0.6347 -72.9488 134° Southeast  Level FlightAware Approximate
05:18AM -0.7282 -72.8503 134° Southeast  Level FlightAware Approximate
05:19AM -0.8218 -72.7517 134° Southeast  Level FlightAware Approximate
05:20AM -0.9153 -72.6532 134° Southeast  Level FlightAware Approximate
05:21AM -1.0088 -72.5546 134° Southeast  Level FlightAware Approximate
05:22AM -1.1024 -72.4560 134° Southeast  Level FlightAware Approximate
05:23AM -1.1959 -72.3575 134° Southeast  Level FlightAware Approximate
05:24AM -1.2894 -72.2589 134° Southeast  Level FlightAware Approximate
05:25AM -1.3830 -72.1603 133° Southeast  Level FlightAware Approximate
05:26AM -1.4765 -72.0617 133° Southeast  Level FlightAware Approximate
05:27AM -1.5700 -71.9631 133° Southeast  Level FlightAware Approximate
05:28AM -1.6635 -71.8644 133° Southeast  Level FlightAware Approximate
05:29AM -1.7570 -71.7658 133° Southeast  Level FlightAware Approximate
05:30AM -1.8505 -71.6672 133° Southeast  Level FlightAware Approximate
05:31AM -1.9440 -71.5685 133° Southeast  Level FlightAware Approximate
05:32AM -2.0375 -71.4699 133° Southeast  Level FlightAware Approximate
05:33AM -2.1310 -71.3712 133° Southeast  Level FlightAware Approximate
05:34AM -2.2245 -71.2725 133° Southeast  Level FlightAware Approximate
05:35AM -2.3180 -71.1738 133° Southeast  Level FlightAware Approximate
05:36AM -2.4114 -71.0751 133° Southeast  Level FlightAware Approximate
05:37AM -2.5049 -70.9764 133° Southeast  Level FlightAware Approximate
05:38AM -2.5983 -70.8777 133° Southeast  Level FlightAware Approximate
05:39AM -2.6918 -70.7789 133° Southeast  Level FlightAware Approximate
05:40AM -2.7852 -70.6802 133° Southeast  Level FlightAware Approximate
05:41AM -2.8786 -70.5814 133° Southeast  Level FlightAware Approximate
05:42AM -2.9721 -70.4826 133° Southeast  Level FlightAware Approximate
05:43AM -3.0655 -70.3838 133° Southeast  Level FlightAware Approximate
05:44AM -3.1589 -70.2849 133° Southeast  Level FlightAware Approximate
05:45AM -3.2523 -70.1861 133° Southeast  Level FlightAware Approximate
05:46AM -3.3456 -70.0872 133° Southeast  Level FlightAware Approximate
05:47AM -3.4390 -69.9883 133° Southeast  Level FlightAware Approximate
05:48AM -3.5324 -69.8894 133° Southeast  Level FlightAware Approximate
05:49AM -3.6257 -69.7905 133° Southeast  Level FlightAware Approximate
05:50AM -3.7191 -69.6916 133° Southeast  Level FlightAware Approximate
05:51AM -3.8124 -69.5926 133° Southeast  Level FlightAware Approximate
05:52AM -3.9057 -69.4936 133° Southeast  Level FlightAware Approximate
05:53AM -3.9990 -69.3946 133° Southeast  Level FlightAware Approximate
05:54AM -4.0923 -69.2956 133° Southeast  Level FlightAware Approximate
05:55AM -4.1856 -69.1965 133° Southeast  Level FlightAware Approximate
05:56AM -4.2789 -69.0974 133° Southeast  Level FlightAware Approximate
05:57AM -4.3721 -68.9983 133° Southeast  Level FlightAware Approximate
05:58AM -4.4654 -68.8992 133° Southeast  Level FlightAware Approximate
05:59AM -4.5586 -68.8001 133° Southeast  Level FlightAware Approximate
06:00AM -4.6518 -68.7009 133° Southeast  Level FlightAware Approximate
06:01AM -4.7450 -68.6017 133° Southeast  Level FlightAware Approximate
06:02AM -4.8382 -68.5024 133° Southeast  Level FlightAware Approximate
06:03AM -4.9314 -68.4032 133° Southeast  Level FlightAware Approximate
06:04AM -5.0246 -68.3039 133° Southeast  Level FlightAware Approximate
06:05AM -5.1177 -68.2046 133° Southeast  Level FlightAware Approximate
06:06AM -5.2108 -68.1052 133° Southeast  Level FlightAware Approximate
06:07AM -5.3040 -68.0059 133° Southeast  Level FlightAware Approximate
06:08AM -5.3971 -67.9065 133° Southeast  Level FlightAware Approximate
06:09AM -5.4901 -67.8071 133° Southeast  Level FlightAware Approximate
06:10AM -5.5832 -67.7076 133° Southeast  Level FlightAware Approximate
06:11AM -5.6763 -67.6081 133° Southeast  Level FlightAware Approximate
06:12AM -5.7693 -67.5086 133° Southeast  Level FlightAware Approximate
06:13AM -5.8623 -67.4090 133° Southeast  Level FlightAware Approximate
06:14AM -5.9553 -67.3094 133° Southeast  Level FlightAware Approximate
06:15AM -6.0483 -67.2098 133° Southeast  Level FlightAware Approximate
06:16AM -6.1413 -67.1101 133° Southeast  Level FlightAware Approximate
06:17AM -6.2342 -67.0104 133° Southeast  Level FlightAware Approximate
06:18AM -6.3271 -66.9107 133° Southeast  Level FlightAware Approximate
06:19AM -6.4200 -66.8109 133° Southeast  Level FlightAware Approximate
06:20AM -6.5129 -66.7111 133° Southeast  Level FlightAware Approximate
06:21AM -6.6058 -66.6113 133° Southeast  Level FlightAware Approximate
06:22AM -6.6986 -66.5114 133° Southeast  Level FlightAware Approximate
06:23AM -6.7915 -66.4115 133° Southeast  Level FlightAware Approximate
06:24AM -6.8843 -66.3115 133° Southeast  Level FlightAware Approximate
06:25AM -6.9771 -66.2115 133° Southeast  Level FlightAware Approximate
06:26AM -7.0698 -66.1115 133° Southeast  Level FlightAware Approximate
06:27AM -7.1626 -66.0114 133° Southeast  Level FlightAware Approximate
06:28AM -7.2553 -65.9113 133° Southeast  Level FlightAware Approximate
06:29AM -7.3480 -65.8111 133° Southeast  Level FlightAware Approximate
06:30AM -7.4407 -65.7110 133° Southeast  Level FlightAware Approximate
06:31AM -7.5333 -65.6107 133° Southeast  Level FlightAware Approximate
06:32AM -7.6259 -65.5104 133° Southeast  Level FlightAware Approximate
06:33AM -7.7186 -65.4101 133° Southeast  Level FlightAware Approximate
06:34AM -7.8112 -65.3097 133° Southeast  Level FlightAware Approximate
06:35AM -7.9037 -65.2093 133° Southeast  Level FlightAware Approximate
06:36AM -7.9963 -65.1088 133° Southeast  Level FlightAware Approximate
06:37AM -8.0888 -65.0083 133° Southeast  Level FlightAware Approximate
06:38AM -8.1812 -64.9078 133° Southeast  Level FlightAware Approximate
06:39AM -8.2737 -64.8072 133° Southeast  Level FlightAware Approximate
06:40AM -8.3661 -64.7065 133° Southeast  Level FlightAware Approximate
06:41AM -8.4586 -64.6059 133° Southeast  Level FlightAware Approximate
06:42AM -8.5510 -64.5051 133° Southeast  Level FlightAware Approximate
06:43AM -8.6433 -64.4043 133° Southeast  Level FlightAware Approximate
06:44AM -8.7357 -64.3035 133° Southeast  Level FlightAware Approximate
06:45AM -8.8280 -64.2026 133° Southeast  Level FlightAware Approximate
06:46AM -8.9202 -64.1016 133° Southeast  Level FlightAware Approximate
06:47AM -9.0125 -64.0007 133° Southeast  Level FlightAware Approximate
06:48AM -9.1047 -63.8996 133° Southeast  Level FlightAware Approximate
06:49AM -9.1969 -63.7985 133° Southeast  Level FlightAware Approximate
06:50AM -9.2891 -63.6974 133° Southeast  Level FlightAware Approximate
06:51AM -9.3812 -63.5962 133° Southeast  Level FlightAware Approximate
06:52AM -9.4733 -63.4949 133° Southeast  Level FlightAware Approximate
06:53AM -9.5654 -63.3936 133° Southeast  Level FlightAware Approximate
06:54AM -9.6575 -63.2922 133° Southeast  Level FlightAware Approximate
06:55AM -9.7495 -63.1908 133° Southeast  Level FlightAware Approximate
06:56AM -9.8415 -63.0893 133° Southeast  Level FlightAware Approximate
06:57AM -9.9335 -62.9878 133° Southeast  Level FlightAware Approximate
06:58AM -10.0254 -62.8862 133° Southeast  Level FlightAware Approximate
06:59AM -10.1173 -62.7846 133° Southeast  Level FlightAware Approximate
07:00AM -10.2092 -62.6829 133° Southeast  Level FlightAware Approximate
07:01AM -10.3010 -62.5811 133° Southeast  Level FlightAware Approximate
07:02AM -10.3928 -62.4793 133° Southeast  Level FlightAware Approximate
07:03AM -10.4846 -62.3774 132° Southeast  Level FlightAware Approximate
07:04AM -10.5764 -62.2755 132° Southeast  Level FlightAware Approximate
07:05AM -10.6681 -62.1735 132° Southeast  Level FlightAware Approximate
07:06AM -10.7597 -62.0714 132° Southeast  Level FlightAware Approximate
07:07AM -10.8514 -61.9693 132° Southeast  Level FlightAware Approximate
07:08AM -10.9430 -61.8671 132° Southeast  Level FlightAware Approximate
07:09AM -11.0346 -61.7648 132° Southeast  Level FlightAware Approximate
07:10AM -11.1261 -61.6625 132° Southeast  Level FlightAware Approximate
07:11AM -11.2176 -61.5601 132° Southeast  Level FlightAware Approximate
07:12AM -11.3091 -61.4577 132° Southeast  Level FlightAware Approximate
07:13AM -11.4005 -61.3552 132° Southeast  Level FlightAware Approximate
07:14AM -11.4919 -61.2526 132° Southeast  Level FlightAware Approximate
07:15AM -11.5833 -61.1499 132° Southeast  Level FlightAware Approximate
07:16AM -11.6746 -61.0472 132° Southeast  Level FlightAware Approximate
07:17AM -11.7659 -60.9445 132° Southeast  Level FlightAware Approximate
07:18AM -11.8572 -60.8416 132° Southeast  Level FlightAware Approximate
07:19AM -11.9484 -60.7387 132° Southeast  Level FlightAware Approximate
07:20AM -12.0396 -60.6357 132° Southeast  Level FlightAware Approximate
07:21AM -12.1307 -60.5326 132° Southeast  Level FlightAware Approximate
07:22AM -12.2219 -60.4295 132° Southeast  Level FlightAware Approximate
07:23AM -12.3129 -60.3263 132° Southeast  Level FlightAware Approximate
07:24AM -12.4039 -60.2230 132° Southeast  Level FlightAware Approximate
07:25AM -12.4949 -60.1197 132° Southeast  Level FlightAware Approximate
07:26AM -12.5859 -60.0163 132° Southeast  Level FlightAware Approximate
07:27AM -12.6768 -59.9128 132° Southeast  Level FlightAware Approximate
07:28AM -12.7677 -59.8092 132° Southeast  Level FlightAware Approximate
07:29AM -12.8585 -59.7056 132° Southeast  Level FlightAware Approximate
07:30AM -12.9493 -59.6019 132° Southeast  Level FlightAware Approximate
07:31AM -13.0400 -59.4981 132° Southeast  Level FlightAware Approximate
07:32AM -13.1307 -59.3942 132° Southeast  Level FlightAware Approximate
07:33AM -13.2214 -59.2903 132° Southeast  Level FlightAware Approximate
07:34AM -13.3120 -59.1863 132° Southeast  Level FlightAware Approximate
07:35AM -13.4026 -59.0822 132° Southeast  Level FlightAware Approximate
07:36AM -13.4932 -58.9780 132° Southeast  Level FlightAware Approximate
07:37AM -13.5837 -58.8738 132° Southeast  Level FlightAware Approximate
07:38AM -13.6741 -58.7694 132° Southeast  Level FlightAware Approximate
07:39AM -13.7645 -58.6650 132° Southeast  Level FlightAware Approximate
07:40AM -13.8549 -58.5605 132° Southeast  Level FlightAware Approximate
07:41AM -13.9452 -58.4560 132° Southeast  Level FlightAware Approximate
07:42AM -14.0355 -58.3513 132° Southeast  Level FlightAware Approximate
07:43AM -14.1257 -58.2466 132° Southeast  Level FlightAware Approximate
07:44AM -14.2159 -58.1417 132° Southeast  Level FlightAware Approximate
07:45AM -14.3061 -58.0368 132° Southeast  Level FlightAware Approximate
07:46AM -14.3961 -57.9319 132° Southeast  Level FlightAware Approximate
07:47AM -14.4862 -57.8268 132° Southeast  Level FlightAware Approximate
07:48AM -14.5762 -57.7216 131° Southeast  Level FlightAware Approximate
07:49AM -14.6662 -57.6164 131° Southeast  Level FlightAware Approximate
07:50AM -14.7561 -57.5111 131° Southeast  Level FlightAware Approximate
07:51AM -14.8459 -57.4056 131° Southeast  Level FlightAware Approximate
07:52AM -14.9357 -57.3001 131° Southeast  Level FlightAware Approximate
07:53AM -15.0255 -57.1945 131° Southeast  Level FlightAware Approximate
07:54AM -15.1152 -57.0888 131° Southeast  Level FlightAware Approximate
07:55AM -15.2049 -56.9831 131° Southeast  Level FlightAware Approximate
07:56AM -15.2945 -56.8772 131° Southeast  Level FlightAware Approximate
07:57AM -15.3841 -56.7713 131° Southeast  Level FlightAware Approximate
07:58AM -15.4736 -56.6652 131° Southeast  Level FlightAware Approximate
07:59AM -15.5631 -56.5591 131° Southeast  Level FlightAware Approximate
08:00AM -15.6525 -56.4529 131° Southeast  Level FlightAware Approximate
08:01AM -15.7418 -56.3465 131° Southeast  Level FlightAware Approximate
08:02AM -15.8311 -56.2401 131° Southeast  Level FlightAware Approximate
08:03AM -15.9204 -56.1336 131° Southeast  Level FlightAware Approximate
08:04AM -16.0096 -56.0270 131° Southeast  Level FlightAware Approximate
08:05AM -16.0987 -55.9203 131° Southeast  Level FlightAware Approximate
08:06AM -16.1879 -55.8135 131° Southeast  Level FlightAware Approximate
08:07AM -16.2769 -55.7066 131° Southeast  Level FlightAware Approximate
08:08AM -16.3659 -55.5997 131° Southeast  Level FlightAware Approximate
08:09AM -16.4548 -55.4926 131° Southeast  Level FlightAware Approximate
08:10AM -16.5437 -55.3854 131° Southeast  Level FlightAware Approximate
08:11AM -16.6325 -55.2781 131° Southeast  Level FlightAware Approximate
08:12AM -16.7213 -55.1707 131° Southeast  Level FlightAware Approximate
08:13AM -16.8100 -55.0632 131° Southeast  Level FlightAware Approximate
08:14AM -16.8987 -54.9557 131° Southeast  Level FlightAware Approximate
08:15AM -16.9873 -54.8480 131° Southeast  Level FlightAware Approximate
08:16AM -17.0759 -54.7402 131° Southeast  Level FlightAware Approximate
08:17AM -17.1644 -54.6323 131° Southeast  Level FlightAware Approximate
08:18AM -17.2528 -54.5243 131° Southeast  Level FlightAware Approximate
08:19AM -17.3412 -54.4162 131° Southeast  Level FlightAware Approximate
08:20AM -17.4295 -54.3080 131° Southeast  Level FlightAware Approximate
08:21AM -17.5178 -54.1997 131° Southeast  Level FlightAware Approximate
08:22AM -17.6060 -54.0913 130° Southeast  Level FlightAware Approximate
08:23AM -17.6941 -53.9828 130° Southeast  Level FlightAware Approximate
08:24AM -17.7822 -53.8742 130° Southeast  Level FlightAware Approximate
08:25AM -17.8702 -53.7654 130° Southeast  Level FlightAware Approximate
08:26AM -17.9582 -53.6566 130° Southeast  Level FlightAware Approximate
08:27AM -18.0461 -53.5477 130° Southeast  Level FlightAware Approximate
08:28AM -18.1339 -53.4386 130° Southeast  Level FlightAware Approximate
08:29AM -18.2217 -53.3295 130° Southeast  Level FlightAware Approximate
08:30AM -18.3094 -53.2202 130° Southeast  Level FlightAware Approximate
08:31AM -18.3971 -53.1108 130° Southeast  Level FlightAware Approximate
08:32AM -18.4847 -53.0013 130° Southeast  Level FlightAware Approximate
08:33AM -18.5722 -52.8917 130° Southeast  Level FlightAware Approximate
08:34AM -18.6597 -52.7820 130° Southeast  Level FlightAware Approximate
08:35AM -18.7471 -52.6721 130° Southeast  Level FlightAware Approximate
08:36AM -18.8344 -52.5622 130° Southeast  Level FlightAware Approximate
08:37AM -18.9217 -52.4521 130° Southeast  Level FlightAware Approximate
08:38AM -19.0089 -52.3420 130° Southeast  Level FlightAware Approximate
08:39AM -19.0961 -52.2317 130° Southeast  Level FlightAware Approximate
08:40AM -19.1832 -52.1213 130° Southeast  Level FlightAware Approximate
08:41AM -19.2702 -52.0107 130° Southeast  Level FlightAware Approximate
08:42AM -19.3571 -51.9001 130° Southeast  Level FlightAware Approximate
08:43AM -19.4440 -51.7893 130° Southeast  Level FlightAware Approximate
08:44AM -19.5308 -51.6785 130° Southeast  Level FlightAware Approximate
08:45AM -19.6176 -51.5675 130° Southeast  Level FlightAware Approximate
08:46AM -19.7043 -51.4563 130° Southeast  Level FlightAware Approximate
08:47AM -19.7909 -51.3451 130° Southeast  Level FlightAware Approximate
08:48AM -19.8774 -51.2337 130° Southeast  Level FlightAware Approximate
08:49AM -19.9639 -51.1223 130° Southeast  Level FlightAware Approximate
08:50AM -20.0503 -51.0107 130° Southeast  Level FlightAware Approximate
08:51AM -20.1366 -50.8989 129° Southeast  Level FlightAware Approximate
08:52AM -20.2229 -50.7871 129° Southeast  Level FlightAware Approximate
08:53AM -20.3090 -50.6751 129° Southeast  Level FlightAware Approximate
08:54AM -20.3952 -50.5630 129° Southeast  Level FlightAware Approximate
08:55AM -20.4812 -50.4508 129° Southeast  Level FlightAware Approximate
08:56AM -20.5672 -50.3384 129° Southeast  Level FlightAware Approximate
08:57AM -20.6531 -50.2260 129° Southeast  Level FlightAware Approximate
08:58AM -20.7389 -50.1134 129° Southeast  Level FlightAware Approximate
08:59AM -20.8247 -50.0006 129° Southeast  Level FlightAware Approximate
09:00AM -20.9104 -49.8878 129° Southeast  Level FlightAware Approximate
09:01AM -20.9960 -49.7748 129° Southeast  Level FlightAware Approximate
09:02AM -21.0815 -49.6617 129° Southeast  Level FlightAware Approximate
09:03AM -21.1670 -49.5484 129° Southeast  Level FlightAware Approximate
09:04AM -21.2523 -49.4350 129° Southeast  Level FlightAware Approximate
09:05AM -21.3377 -49.3215 129° Southeast  Level FlightAware Approximate
09:06AM -21.4229 -49.2079 129° Southeast  Level FlightAware Approximate
09:07AM -21.5081 -49.0941 129° Southeast  Level FlightAware Approximate
09:08AM -21.5931 -48.9802 129° Southeast  Level FlightAware Approximate
09:09AM -21.6781 -48.8662 129° Southeast  Level FlightAware Approximate
09:10AM -21.7631 -48.7520 129° Southeast  Level FlightAware Approximate
09:11AM -21.8479 -48.6377 129° Southeast  Level FlightAware Approximate
09:12AM -21.9327 -48.5232 129° Southeast  Level FlightAware Approximate
09:13AM -22.0173 -48.4086 129° Southeast  Level FlightAware Approximate
09:14AM -22.1019 -48.2939 129° Southeast  Level FlightAware Approximate
09:15AM -22.1858 -48.1785 118° Southeast  Level FlightAware Approximate
09:16AM -22.2590 -48.0554 131° Southeast  Level FlightAware Approximate
09:17AM -22.3479 -47.9443 131° Southeast  Level FlightAware Approximate
09:18AM -22.4349 -47.8314 129° Southeast  Level FlightAware Approximate
09:19AM -22.5205 -47.7172 129° Southeast  Level FlightAware Approximate
09:20AM -22.6050 -47.6020 127° Southeast  Level FlightAware Approximate
09:21AM -22.6866 -47.4843 127° Southeast  Level FlightAware Approximate
09:22AM -22.7699 -47.3680 129° Southeast  Level FlightAware Approximate
09:23AM -22.8557 -47.2537 129° Southeast  Level FlightAware Approximate
09:24AM -22.9409 -47.1387 126° Southeast  Level FlightAware Approximate
09:25AM -23.0206 -47.0192 126° Southeast  Level FlightAware Approximate
09:26AM -23.1041 -46.9028 128° Southeast  Level FlightAware Approximate
09:27AM -23.1924 -46.7909 137° Southeast  Level FlightAware Approximate
09:28AM -23.2663 -46.6673 122° Southeast  Level FlightAware Approximate
09:29AM -23.3522 -46.5526 129° Southeast  Level FlightAware Approximate
09:30AM -23.4167 -46.4667 129° Southeast  Level FlightAware Approximate
09:31AM -23.4321 -46.4695 129° Southeast  Level Estimated